Time;durP1;ratioP1;P1;durP2;ratioP2;P2;SDS_P1;SDS_P2;PMS_P1;PMS_P2;Temp;Humidity;BMP_temperature;BMP_pressure;BME280_temperature;BME280_humidity;BME280_pressure;Samples;Min_cycle;Max_cycle;Signal;HPM_P1;HPM_P2
2022/07/13 10:42:14;;;;;;;2.65;1.60;;;30.90;62.20;;;-144.05;30.55;125687.94;6166935;23;20022;-90
2022/07/13 10:44:42;;;;;;;5.00;1.77;;;30.40;61.30;;;-144.05;31.07;125687.94;6137743;23;20009;-91
2022/07/13 10:47:12;;;;;;;1.95;1.63;;;30.20;62.40;;;-144.05;31.50;125687.94;6164626;23;20064;-91
2022/07/13 10:49:47;;;;;;;3.00;1.85;;;30.30;63.70;;;-144.05;31.41;125687.94;6162291;23;20036;-91
2022/07/13 10:52:22;;;;;;;4.30;1.90;;;30.60;64.20;;;-144.05;30.63;125687.94;6168192;23;19994;-91
2022/07/13 10:55:03;;;;;;;5.70;1.95;;;31.20;63.10;;;-144.05;29.51;125687.94;6149230;23;20260;-92
2022/07/13 10:57:33;;;;;;;2.25;1.90;;;31.50;60.40;;;-144.05;30.08;125687.94;6151150;23;20040;-91
2022/07/13 11:00:57;;;;;;;4.60;2.00;;;31.50;61.00;;;-144.05;29.74;125687.94;6174618;23;19998;-89
2022/07/13 11:03:47;;;;;;;3.20;1.90;;;31.60;59.70;;;-144.05;29.32;125687.94;6068034;23;20006;-89
2022/07/13 11:06:25;;;;;;;6.32;2.08;;;32.30;59.60;;;-144.05;29.10;125687.94;6095929;23;20022;-88
2022/07/13 11:09:24;;;;;;;8.70;2.15;;;32.30;57.80;;;-144.05;29.31;125687.94;6181474;23;20005;-89
2022/07/13 11:11:54;;;;;;;6.22;2.13;;;32.10;58.60;;;-144.05;29.58;125687.94;6102637;23;20048;-90
2022/07/13 11:37:43;;;;;;;4.78;2.05;;;29.80;63.60;;;-144.05;32.53;125687.94;6115969;23;20033;-92
2022/07/13 11:40:25;;;;;;;4.40;1.98;;;29.60;65.10;;;-144.05;32.66;125687.94;6086520;23;20085;-91
2022/07/13 11:42:53;;;;;;;4.78;2.30;;;29.50;66.20;;;-144.05;32.59;125687.94;6112740;23;20018;-93
2022/07/13 11:45:48;;;;;;;5.93;2.05;;;29.50;65.80;;;-144.05;32.68;125687.94;6088903;23;20010;-90
2022/07/13 11:48:44;;;;;;;3.38;1.58;;;29.50;66.70;;;-144.05;32.89;125687.94;6079458;23;20022;-89
2022/07/13 11:51:14;;;;;;;5.22;1.80;;;29.60;67.30;;;-144.05;32.68;125687.94;6085452;23;20007;-92
2022/07/13 11:54:19;;;;;;;5.28;1.65;;;29.60;66.20;;;-144.05;32.99;125687.94;6087203;23;20428;-90
2022/07/13 11:57:19;;;;;;;5.40;1.50;;;29.60;67.30;;;-144.05;33.16;125687.94;6115762;23;20010;-89
2022/07/13 11:59:45;;;;;;;3.40;1.60;;;29.60;67.40;;;-144.05;32.88;125687.94;6082247;23;19998;-89
2022/07/13 12:12:41;;;;;;;3.90;1.67;;;30.40;64.20;;;-144.05;30.96;125687.94;6105857;23;20018;-90
2022/07/13 12:15:19;;;;;;;5.78;1.45;;;30.60;63.30;;;-144.05;31.56;125687.94;6106865;23;20007;-89
2022/07/13 12:17:53;;;;;;;2.85;1.45;;;30.80;65.30;;;-144.05;31.01;125687.94;6111197;23;20007;-90
2022/07/13 12:20:23;;;;;;;5.28;1.60;;;30.80;63.50;;;-144.05;30.79;125687.94;6111868;23;20013;-91
2022/07/13 12:23:07;;;;;;;3.78;1.65;;;30.50;61.70;;;-144.05;31.72;125687.94;6134344;23;20341;-91
2022/07/13 12:26:07;;;;;;;4.72;1.67;;;30.40;63.10;;;-144.05;31.91;125687.94;6102389;23;20214;-90
2022/07/13 12:28:40;;;;;;;2.35;1.30;;;30.30;64.50;;;-144.05;31.58;125687.94;6108310;23;20007;-89
2022/07/13 12:31:06;;;;;;;2.05;1.17;;;30.40;64.10;;;-144.05;31.73;125687.94;6115688;23;20037;-88
2022/07/13 12:33:46;;;;;;;7.88;1.67;;;30.40;64.40;;;-144.05;31.11;125687.94;6118034;23;20025;-88
2022/07/13 12:36:15;;;;;;;2.90;1.30;;;30.10;61.80;;;-144.05;30.97;125687.94;6105846;23;20034;-90
2022/07/13 12:39:55;;;;;;;4.05;1.40;;;30.00;61.60;;;-144.05;31.86;125687.94;6101749;23;20089;-91
2022/07/13 12:43:02;;;;;;;1.95;1.33;;;30.00;64.70;;;-144.05;30.83;125687.94;6094660;23;20016;-90
2022/07/13 12:46:06;;;;;;;5.00;1.60;;;29.90;61.50;;;-144.05;31.58;125687.94;6124801;23;20010;-89
2022/07/13 12:48:42;;;;;;;4.07;1.92;;;29.80;63.40;;;-144.05;31.55;125687.94;6013715;23;20476;-90
2022/07/13 12:54:23;;;;;;;4.50;1.50;;;29.90;63.90;;;-144.05;30.99;125687.94;6124323;23;20045;-88
2022/07/13 12:56:57;;;;;;;3.75;1.85;;;30.00;63.30;;;-144.05;31.47;125687.94;6128980;23;20088;-90
2022/07/13 12:59:28;;;;;;;5.15;1.70;;;29.90;63.50;;;-144.05;32.33;125687.94;6136487;23;20029;-90
2022/07/13 13:02:04;;;;;;;2.67;1.50;;;29.90;64.70;;;-144.05;31.40;125687.94;6148273;23;20018;-91
2022/07/13 13:04:42;;;;;;;4.90;1.85;;;30.20;63.60;;;-144.05;32.09;125687.94;6121630;23;20014;-90
2022/07/13 13:07:17;;;;;;;3.88;1.95;;;30.40;65.90;;;-144.05;31.84;125687.94;6156613;23;20013;-90
2022/07/13 13:09:46;;;;;;;2.38;1.73;;;30.30;63.90;;;-144.05;32.41;125687.94;6139454;23;20078;-90
2022/07/13 13:12:16;;;;;;;7.82;1.73;;;30.20;65.70;;;-144.05;31.79;125687.94;6133638;23;20868;-90
2022/07/13 13:14:42;;;;;;;5.05;2.10;;;30.10;64.60;;;-144.05;31.83;125687.94;6155202;23;20006;-90
2022/07/13 13:21:40;;;;;;;2.95;1.70;;;30.30;63.30;;;-144.05;31.83;125687.94;6018584;23;20015;-90
2022/07/13 13:44:08;;;;;;;3.13;1.90;;;30.40;63.30;;;-144.05;31.71;125687.94;6151732;23;20025;-89
2022/07/13 13:46:47;;;;;;;4.40;2.03;;;30.30;64.20;;;-144.05;30.73;125687.94;6150932;23;20029;-88
2022/07/13 13:49:18;;;;;;;5.20;2.67;;;30.90;62.50;;;-144.05;31.41;125687.94;6150127;23;19998;-88
2022/07/13 14:18:57;;;;;;;3.15;1.92;;;29.80;66.60;;;-144.05;31.78;125687.94;6103032;23;20018;-91
2022/07/13 14:21:23;;;;;;;5.55;1.80;;;29.70;64.30;;;-144.05;32.04;125687.94;6075141;23;20006;-89
2022/07/13 14:23:50;;;;;;;4.80;2.20;;;29.60;64.30;;;-144.05;32.59;125687.94;6073135;23;20018;-89
2022/07/13 14:27:06;;;;;;;4.15;2.30;;;29.50;65.80;;;-144.05;32.57;125687.94;6075302;23;20022;-88
2022/07/13 14:29:35;;;;;;;3.63;1.77;;;29.50;66.10;;;-144.05;32.19;125687.94;6095787;23;20085;-91
2022/07/13 14:50:32;;;;;;;3.85;1.90;;;28.90;66.90;;;-144.05;33.20;125687.94;6100019;23;20045;-91
2022/07/13 14:54:17;;;;;;;2.53;1.70;;;28.70;67.40;;;-144.05;33.15;125687.94;6091288;23;20479;-91
2022/07/13 15:06:37;;;;;;;3.70;1.70;;;28.10;68.00;;;-144.05;33.78;125687.94;5956343;24;20085;-90
2022/07/13 15:10:10;;;;;;;3.97;2.00;;;27.80;68.60;;;-144.05;34.38;125687.94;5890784;24;20044;-91
2022/07/13 15:16:47;;;;;;;1.00;1.00;;;27.90;71.90;;;-144.05;35.38;125687.94;5277300;24;15218353;-88
2022/07/13 15:19:14;;;;;;;3.42;1.77;;;27.60;71.90;;;-144.05;35.22;125687.94;5932280;24;20074;-89
2022/07/13 15:23:18;;;;;;;3.35;1.58;;;27.30;71.70;;;-144.05;36.52;125687.94;5943096;23;20016;-89
2022/07/13 15:31:34;;;;;;;5.60;2.85;;;26.40;84.00;;;-144.05;45.83;125687.94;5875219;24;20013;-88
2022/07/13 15:36:38;;;;;;;6.72;2.65;;;24.80;99.90;;;-144.05;52.65;125687.94;6106815;23;20022;-89
2022/07/13 15:39:06;;;;;;;3.60;2.20;;;24.30;99.90;;;-144.05;51.46;125687.94;6105654;23;20089;-87
2022/07/13 15:41:32;;;;;;;6.07;2.20;;;23.50;99.90;;;-144.05;54.13;125687.94;6075539;23;20371;-87
2022/07/13 15:44:03;;;;;;;3.67;2.10;;;23.20;99.90;;;-144.05;56.21;125687.94;6074039;23;20014;-87
2022/07/13 15:46:32;;;;;;;7.10;2.20;;;22.90;99.90;;;-144.05;56.53;125687.94;6088546;23;20073;-87
2022/07/13 15:49:04;;;;;;;5.95;2.00;;;22.80;99.90;;;-144.05;57.40;125687.94;6095466;23;20014;-88
2022/07/13 15:51:42;;;;;;;2.10;1.55;;;22.60;99.90;;;-144.05;57.19;125687.94;6100280;23;20018;-89
2022/07/13 15:56:48;;;;;;;2.17;1.50;;;22.30;99.90;;;-144.05;55.57;125687.94;6104049;23;20022;-87
2022/07/13 15:59:17;;;;;;;2.97;1.70;;;22.20;99.90;;;-144.05;56.40;125687.94;6104592;23;20073;-85
2022/07/13 16:01:43;;;;;;;1.67;1.58;;;22.20;99.90;;;-144.05;58.39;125687.94;6078240;23;20338;-86
2022/07/13 16:04:09;;;;;;;3.67;1.67;;;22.10;99.90;;;-144.05;58.45;125687.94;6103116;23;20085;-87
2022/07/13 16:06:35;;;;;;;2.80;1.40;;;22.10;99.90;;;-144.05;55.65;125687.94;6103541;23;20006;-88
2022/07/13 16:09:01;;;;;;;2.85;1.58;;;22.10;99.90;;;-144.05;54.77;125687.94;6077843;23;20448;-88
2022/07/13 16:11:30;;;;;;;1.65;1.35;;;22.10;99.90;;;-144.05;55.52;125687.94;6100645;23;20098;-89
2022/07/13 16:13:58;;;;;;;2.38;1.50;;;22.10;99.90;;;-144.05;56.25;125687.94;6101306;23;20006;-88
2022/07/13 16:16:25;;;;;;;1.92;1.50;;;22.10;99.90;;;-144.05;54.95;125687.94;6076760;23;20361;-89
2022/07/13 16:18:51;;;;;;;2.35;1.50;;;22.10;99.90;;;-144.05;55.21;125687.94;6076312;23;20306;-90
2022/07/13 16:21:17;;;;;;;2.03;1.58;;;22.20;99.90;;;-144.05;53.56;125687.94;6075211;23;20017;-87
2022/07/13 16:23:43;;;;;;;1.30;1.20;;;22.10;99.90;;;-144.05;52.48;125687.94;6075340;23;20037;-90
2022/07/13 16:26:09;;;;;;;3.08;1.63;;;22.20;99.90;;;-144.05;52.07;125687.94;6075435;23;20015;-87
2022/07/13 16:28:35;;;;;;;2.45;1.23;;;22.20;99.90;;;-144.05;53.75;125687.94;6075919;23;20061;-88
2022/07/13 16:31:02;;;;;;;1.83;1.55;;;22.30;99.90;;;-144.05;52.23;125687.94;6102073;23;20021;-86
2022/07/13 16:33:28;;;;;;;2.58;1.45;;;22.40;99.90;;;-144.05;50.60;125687.94;6077908;23;20006;-90
2022/07/13 16:35:53;;;;;;;2.83;1.67;;;22.60;99.90;;;-144.05;50.82;125687.94;6079210;23;20021;-87
2022/07/13 16:38:19;;;;;;;3.05;1.27;;;22.80;99.90;;;-144.05;50.22;125687.94;6102821;23;20106;-89
2022/07/13 16:40:45;;;;;;;1.48;1.35;;;23.00;99.90;;;-144.05;48.65;125687.94;6078813;23;20011;-89
2022/07/13 16:43:11;;;;;;;1.35;1.17;;;23.20;99.90;;;-144.05;46.42;125687.94;6078301;23;20010;-87
2022/07/13 16:45:37;;;;;;;2.72;1.48;;;23.60;99.90;;;-144.05;45.83;125687.94;6102050;23;20081;-87
2022/07/13 16:48:05;;;;;;;2.63;1.33;;;24.00;99.90;;;-144.05;44.96;125687.94;6077475;23;20013;-88
2022/07/13 16:50:32;;;;;;;2.60;1.38;;;24.30;99.90;;;-144.05;43.43;125687.94;6102336;23;20495;-87
2022/07/13 16:52:58;;;;;;;2.38;1.30;;;24.60;99.90;;;-144.05;41.17;125687.94;6104387;23;20038;-89
2022/07/13 16:55:24;;;;;;;1.58;0.85;;;24.70;99.90;;;-144.05;38.84;125687.94;6105517;23;20010;-88
2022/07/13 16:57:50;;;;;;;3.55;1.15;;;24.70;99.90;;;-144.05;39.75;125687.94;6078577;23;20141;-88
2022/07/13 17:00:17;;;;;;;1.58;1.00;;;24.60;99.90;;;-144.05;39.16;125687.94;6078515;23;20010;-88
2022/07/13 17:02:44;;;;;;;1.77;0.90;;;24.60;99.90;;;-144.05;40.57;125687.94;6078681;23;20011;-85
2022/07/13 17:05:10;;;;;;;1.48;0.88;;;24.70;99.90;;;-144.05;37.82;125687.94;6123445;23;20006;-85
2022/07/13 17:07:37;;;;;;;1.33;0.90;;;24.90;99.90;;;-144.05;37.70;125687.94;6080807;23;20479;-90
2022/07/13 17:10:06;;;;;;;1.25;0.70;;;25.00;99.90;;;-144.05;37.73;125687.94;6076404;23;20010;-90
2022/07/13 17:12:35;;;;;;;3.10;0.80;;;25.20;99.90;;;-144.05;37.00;125687.94;6076105;23;20512;-92
2022/07/13 17:15:04;;;;;;;1.73;0.93;;;25.20;97.10;;;-144.05;37.43;125687.94;6076457;23;20010;-87
2022/07/13 17:17:33;;;;;;;2.53;0.75;;;25.30;98.80;;;-144.05;36.46;125687.94;6101289;23;20007;-88
2022/07/13 17:19:58;;;;;;;1.48;1.00;;;25.30;95.00;;;-144.05;37.45;125687.94;6076743;23;20459;-91
2022/07/13 17:22:25;;;;;;;2.03;1.08;;;25.30;96.90;;;-144.05;37.52;125687.94;6102691;23;20026;-87
2022/07/13 17:24:52;;;;;;;1.80;1.13;;;25.30;96.50;;;-144.05;37.57;125687.94;6077003;23;20014;-87
2022/07/13 17:27:19;;;;;;;2.30;1.33;;;25.20;96.80;;;-144.05;37.81;125687.94;6102019;23;20018;-90
2022/07/13 17:29:46;;;;;;;1.95;1.30;;;25.20;97.10;;;-144.05;38.12;125687.94;6102675;23;20013;-92
2022/07/13 17:32:12;;;;;;;3.63;1.58;;;25.10;98.20;;;-144.05;38.41;125687.94;6102952;23;20007;-91
2022/07/13 17:34:40;;;;;;;2.80;1.25;;;25.10;99.80;;;-144.05;38.31;125687.94;6079202;23;20011;-89
2022/07/13 17:37:06;;;;;;;3.25;1.40;;;25.10;98.80;;;-144.05;38.92;125687.94;6080067;23;20018;-89
2022/07/13 17:39:35;;;;;;;1.75;1.20;;;25.10;99.90;;;-144.05;39.43;125687.94;6104102;23;20044;-90
2022/07/13 17:42:01;;;;;;;2.72;1.50;;;25.10;99.90;;;-144.05;39.36;125687.94;6080054;23;20010;-88
2022/07/13 17:44:27;;;;;;;5.43;1.60;;;25.10;99.90;;;-144.05;39.65;125687.94;6103179;23;20018;-90
2022/07/13 17:46:54;;;;;;;3.55;1.60;;;25.10;99.90;;;-144.05;39.77;125687.94;6103552;23;20444;-89
2022/07/13 17:49:21;;;;;;;3.47;1.27;;;25.00;99.90;;;-144.05;40.03;125687.94;6103787;23;20029;-89
2022/07/13 17:51:47;;;;;;;2.95;1.70;;;25.00;99.90;;;-144.05;40.10;125687.94;6103730;23;20515;-89
2022/07/13 17:54:13;;;;;;;3.45;1.83;;;24.90;99.90;;;-144.05;40.55;125687.94;6080136;23;20047;-87
2022/07/13 17:56:39;;;;;;;3.80;1.77;;;24.80;99.90;;;-144.05;40.47;125687.94;6080833;23;20014;-87
2022/07/13 17:59:05;;;;;;;3.55;1.90;;;24.70;99.90;;;-144.05;41.00;125687.94;6103144;23;20097;-90
2022/07/13 18:01:32;;;;;;;4.60;2.05;;;24.60;99.90;;;-144.05;41.21;125687.94;6103772;23;20448;-89
2022/07/13 18:03:58;;;;;;;6.13;2.22;;;24.50;99.90;;;-144.05;41.88;125687.94;6078601;23;20060;-89
2022/07/13 18:06:26;;;;;;;4.03;2.35;;;24.40;99.90;;;-144.05;41.90;125687.94;6077818;23;20097;-89
2022/07/13 18:08:52;;;;;;;3.15;1.98;;;24.30;99.90;;;-144.05;42.56;125687.94;6078462;23;20021;-88
2022/07/13 18:11:19;;;;;;;7.15;2.80;;;24.20;99.90;;;-144.05;42.82;125687.94;6106155;23;20002;-91
2022/07/13 18:13:48;;;;;;;4.75;2.47;;;24.10;99.90;;;-144.05;43.20;125687.94;6110331;23;20085;-89
2022/07/13 18:16:13;;;;;;;4.30;1.90;;;24.00;99.90;;;-144.05;42.90;125687.94;6079241;23;20133;-90
2022/07/13 18:18:39;;;;;;;3.72;2.17;;;24.00;99.90;;;-144.05;43.53;125687.94;6106705;23;20011;-90
2022/07/13 18:21:06;;;;;;;5.10;2.42;;;23.90;99.90;;;-144.05;43.77;125687.94;6104966;23;20003;-89
2022/07/13 18:23:49;;;;;;;5.65;2.65;;;23.80;99.90;;;-144.05;44.31;125687.94;6078875;23;20022;-89
2022/07/13 18:26:15;;;;;;;4.57;2.28;;;23.60;99.90;;;-144.05;44.70;125687.94;6079142;23;20014;-89
2022/07/13 18:28:41;;;;;;;4.68;2.38;;;23.50;99.90;;;-144.05;45.06;125687.94;6105094;23;20061;-90
2022/07/13 18:31:06;;;;;;;5.63;2.20;;;23.40;99.90;;;-144.05;45.21;125687.94;6082080;23;20006;-93
2022/07/13 18:33:32;;;;;;;4.10;2.03;;;23.30;99.90;;;-144.05;45.40;125687.94;6083586;23;20038;-90
2022/07/13 18:35:59;;;;;;;4.63;2.78;;;23.30;99.90;;;-144.05;46.04;125687.94;6111791;23;20058;-88
2022/07/13 18:38:25;;;;;;;10.68;2.75;;;23.20;99.90;;;-144.05;46.50;125687.94;6079613;23;20017;-89
2022/07/13 18:40:51;;;;;;;4.22;2.58;;;23.00;99.90;;;-144.05;46.55;125687.94;6105031;23;20014;-87
2022/07/13 18:43:17;;;;;;;5.05;2.22;;;23.00;99.90;;;-144.05;46.84;125687.94;6106503;23;20014;-88
2022/07/13 18:45:44;;;;;;;6.90;2.40;;;23.00;99.90;;;-144.05;47.23;125687.94;6105560;23;20010;-90
2022/07/13 18:48:10;;;;;;;2.90;2.03;;;22.90;99.90;;;-144.05;47.17;125687.94;6081692;23;20017;-86
2022/07/13 18:50:36;;;;;;;3.60;2.20;;;22.90;99.90;;;-144.05;47.52;125687.94;6106655;23;20010;-87
2022/07/13 18:53:03;;;;;;;4.45;2.47;;;22.90;99.90;;;-144.05;47.70;125687.94;6120233;23;19999;-86
2022/07/13 18:55:29;;;;;;;4.65;2.15;;;22.90;99.90;;;-144.05;48.10;125687.94;6100403;23;20007;-84
2022/07/13 18:57:55;;;;;;;5.43;2.63;;;22.80;99.90;;;-144.05;48.03;125687.94;6098709;23;20020;-89
2022/07/13 19:00:21;;;;;;;4.32;2.58;;;22.80;99.90;;;-144.05;48.41;125687.94;6103137;23;20046;-89
2022/07/13 19:02:48;;;;;;;6.50;2.25;;;22.80;99.90;;;-144.05;48.30;125687.94;6103051;23;20408;-90
2022/07/13 19:05:13;;;;;;;5.32;2.35;;;22.80;99.90;;;-144.05;48.12;125687.94;6105529;23;20006;-90
2022/07/13 19:07:40;;;;;;;3.15;2.53;;;22.90;99.90;;;-144.05;47.90;125687.94;6081206;23;20078;-88
2022/07/13 19:10:07;;;;;;;3.35;2.13;;;22.90;99.90;;;-144.05;48.35;125687.94;6082772;23;20068;-88
2022/07/13 19:12:33;;;;;;;5.15;2.00;;;22.80;99.90;;;-144.05;48.44;125687.94;6108341;23;20007;-89
2022/07/13 19:38:21;;;;;;;5.45;1.83;;;22.50;99.90;;;-144.05;48.77;125687.94;6110046;23;20011;-89
2022/07/13 19:40:46;;;;;;;5.75;2.33;;;22.50;99.90;;;-144.05;48.03;125687.94;6101972;23;20010;-90
2022/07/13 19:43:13;;;;;;;4.45;2.05;;;22.50;99.90;;;-144.05;48.04;125687.94;6102335;23;20006;-91
2022/07/13 19:45:40;;;;;;;3.45;1.70;;;22.50;99.90;;;-144.05;47.46;125687.94;6078473;23;20014;-88
2022/07/13 19:48:07;;;;;;;2.60;1.70;;;22.50;99.90;;;-144.05;47.08;125687.94;6078608;23;20185;-90
2022/07/13 19:50:34;;;;;;;3.40;1.67;;;22.50;99.90;;;-144.05;46.43;125687.94;6087690;23;20003;-91
2022/07/13 19:53:01;;;;;;;4.30;1.75;;;22.50;99.90;;;-144.05;46.29;125687.94;6080000;23;20007;-87
2022/07/13 19:55:28;;;;;;;2.20;1.35;;;22.50;99.90;;;-144.05;46.14;125687.94;6085131;23;19999;-89
2022/07/13 19:57:54;;;;;;;2.63;1.80;;;22.40;99.90;;;-144.05;45.73;125687.94;6086100;23;20070;-87
2022/07/13 20:00:26;;;;;;;3.95;1.40;;;22.40;99.90;;;-144.05;46.02;125687.94;6082710;23;20160;-89
2022/07/13 20:02:52;;;;;;;3.05;1.70;;;22.30;99.90;;;-144.05;45.69;125687.94;6082964;23;20018;-89
2022/07/13 20:05:18;;;;;;;3.55;2.17;;;22.30;99.90;;;-144.05;46.11;125687.94;6081858;23;20037;-88
2022/07/13 20:07:44;;;;;;;2.25;1.33;;;22.20;99.90;;;-144.05;46.58;125687.94;6081093;23;20034;-89
2022/07/13 20:10:12;;;;;;;2.90;1.58;;;22.10;99.90;;;-144.05;46.72;125687.94;6106848;23;20035;-87
2022/07/13 20:12:44;;;;;;;3.55;1.55;;;22.10;99.90;;;-144.05;46.98;125687.94;6084533;23;20026;-87
2022/07/13 20:15:12;;;;;;;2.90;1.73;;;22.00;99.90;;;-144.05;46.76;125687.94;6108336;23;20389;-88
2022/07/13 20:17:38;;;;;;;4.68;1.70;;;21.90;99.90;;;-144.05;47.17;125687.94;6091819;23;20010;-90
2022/07/13 20:20:07;;;;;;;3.10;1.55;;;21.80;99.90;;;-144.05;47.15;125687.94;6094321;23;20007;-92
2022/07/13 20:22:34;;;;;;;3.17;1.60;;;21.80;99.90;;;-144.05;47.51;125687.94;6084936;23;20496;-89
2022/07/13 20:25:00;;;;;;;2.50;1.58;;;21.70;99.90;;;-144.05;47.57;125687.94;6078177;23;20085;-89
2022/07/13 20:27:26;;;;;;;6.57;1.65;;;21.70;99.90;;;-144.05;47.75;125687.94;6076958;23;20117;-89
2022/07/13 20:29:53;;;;;;;2.30;1.83;;;21.60;99.90;;;-144.05;48.04;125687.94;6078572;23;20010;-91
2022/07/13 20:32:19;;;;;;;2.47;1.63;;;21.50;99.90;;;-144.05;48.19;125687.94;6077730;23;20010;-90
2022/07/13 20:34:46;;;;;;;1.77;1.63;;;21.50;99.90;;;-144.05;48.48;125687.94;6097651;23;20029;-86
2022/07/13 20:37:13;;;;;;;2.97;1.88;;;21.40;99.90;;;-144.05;48.86;125687.94;6091122;23;20010;-87
2022/07/13 20:39:40;;;;;;;3.05;1.70;;;21.30;99.90;;;-144.05;49.13;125687.94;6084660;23;20014;-89
2022/07/13 20:42:11;;;;;;;1.75;1.40;;;21.20;99.90;;;-144.05;49.58;125687.94;6079337;23;20029;-89
2022/07/13 20:44:38;;;;;;;3.38;1.65;;;21.10;99.90;;;-144.05;50.11;125687.94;6079440;23;20014;-87
2022/07/13 20:47:05;;;;;;;3.95;2.03;;;21.00;99.90;;;-144.05;50.47;125687.94;6083624;23;20017;-84
2022/07/13 20:49:31;;;;;;;3.25;1.77;;;20.90;99.90;;;-144.05;50.91;125687.94;6098752;23;20022;-86
2022/07/13 20:51:57;;;;;;;3.53;2.30;;;20.90;99.90;;;-144.05;50.98;125687.94;6083367;23;20393;-90
2022/07/13 20:54:23;;;;;;;3.25;1.90;;;20.90;99.90;;;-144.05;51.13;125687.94;6103205;23;20038;-92
2022/07/13 20:56:49;;;;;;;4.15;1.83;;;20.90;99.90;;;-144.05;51.37;125687.94;6077759;23;20022;-89
2022/07/13 20:59:15;;;;;;;3.65;2.25;;;20.80;99.90;;;-144.05;51.55;125687.94;6078754;23;20006;-89
2022/07/13 21:01:42;;;;;;;3.40;2.03;;;20.80;99.90;;;-144.05;51.87;125687.94;6081376;23;20041;-88
2022/07/13 21:04:10;;;;;;;2.38;1.75;;;20.70;99.90;;;-144.05;52.06;125687.94;6077828;23;20010;-90
2022/07/13 21:06:36;;;;;;;4.03;1.83;;;20.70;99.90;;;-144.05;52.28;125687.94;6078764;23;20010;-90
2022/07/13 21:09:03;;;;;;;4.22;2.10;;;20.70;99.90;;;-144.05;52.31;125687.94;6109128;23;20013;-88
2022/07/13 21:11:32;;;;;;;3.67;1.95;;;20.70;99.90;;;-144.05;52.49;125687.94;6088542;23;20333;-87
2022/07/13 21:14:00;;;;;;;4.28;2.03;;;20.60;99.90;;;-144.05;52.93;125687.94;6088577;23;20017;-87
2022/07/13 21:16:26;;;;;;;4.90;2.38;;;20.50;99.90;;;-144.05;53.34;125687.94;6109587;23;20066;-87
2022/07/13 21:18:53;;;;;;;2.40;1.98;;;20.50;99.90;;;-144.05;53.58;125687.94;6082741;23;20113;-88
2022/07/13 21:21:19;;;;;;;2.63;1.83;;;20.40;99.90;;;-144.05;54.05;125687.94;6085212;23;20021;-88
2022/07/13 21:23:46;;;;;;;4.75;2.15;;;20.30;99.90;;;-144.05;54.42;125687.94;6087235;23;20062;-89
2022/07/13 21:26:13;;;;;;;3.10;2.05;;;20.20;99.90;;;-144.05;54.76;125687.94;6086512;23;20014;-88
2022/07/13 21:28:39;;;;;;;3.75;1.80;;;20.20;99.90;;;-144.05;55.03;125687.94;6121895;23;20022;-86
2022/07/13 21:31:05;;;;;;;4.53;2.25;;;20.10;99.90;;;-144.05;55.89;125687.94;6115812;23;20042;-86
2022/07/13 21:33:31;;;;;;;5.32;2.35;;;20.00;99.90;;;-144.05;56.25;125687.94;6111237;23;20002;-86
2022/07/13 21:35:58;;;;;;;7.13;2.00;;;20.00;99.90;;;-144.05;56.23;125687.94;6081023;23;20014;-89
2022/07/13 21:38:26;;;;;;;2.85;2.25;;;20.00;99.90;;;-144.05;56.70;125687.94;6081622;23;19998;-89
2022/07/13 21:40:52;;;;;;;6.22;2.38;;;19.90;99.90;;;-144.05;56.88;125687.94;6087881;23;20070;-87
2022/07/13 21:43:20;;;;;;;4.10;2.40;;;19.90;99.90;;;-144.05;57.17;125687.94;6111413;23;20014;-89
2022/07/13 21:45:48;;;;;;;3.22;2.20;;;19.80;99.90;;;-144.05;57.61;125687.94;6077985;23;20089;-88
2022/07/13 21:48:14;;;;;;;4.03;2.13;;;19.70;99.90;;;-144.05;58.07;125687.94;6079908;23;20003;-86
2022/07/13 21:50:40;;;;;;;3.30;2.08;;;19.60;99.90;;;-144.05;58.34;125687.94;6082123;23;20017;-89
2022/07/13 21:53:07;;;;;;;2.90;2.50;;;19.50;99.90;;;-144.05;59.14;125687.94;6083629;23;20007;-89
2022/07/13 21:55:38;;;;;;;5.28;2.35;;;19.40;99.90;;;-144.05;59.74;125687.94;6086578;23;20002;-86
2022/07/13 21:58:04;;;;;;;5.35;2.55;;;19.30;99.90;;;-144.05;60.26;125687.94;6116482;23;19995;-83
2022/07/13 22:00:30;;;;;;;4.78;2.55;;;19.30;99.90;;;-144.05;60.76;125687.94;6084063;23;20003;-88
2022/07/13 22:02:56;;;;;;;3.75;2.67;;;19.10;99.90;;;-144.05;61.16;125687.94;6085220;23;20017;-87
2022/07/13 22:05:53;;;;;;;3.50;2.42;;;19.10;99.90;;;-144.05;61.77;125687.94;6077867;23;20007;-85
2022/07/13 22:08:18;;;;;;;;;;;19.00;99.90;;;-144.05;62.09;125687.94;6079011;23;20010;-86
2022/07/13 22:12:00;;;;;;;2.63;2.42;;;18.90;99.90;;;-144.05;62.47;125687.94;6102286;23;20261;-86
2022/07/13 22:15:41;;;;;;;4.32;2.42;;;18.80;99.90;;;-144.05;63.09;125687.94;6104599;23;20013;-87
2022/07/13 22:19:22;;;;;;;6.35;2.75;;;18.70;99.90;;;-144.05;63.60;125687.94;6107089;23;20010;-89
2022/07/13 22:23:04;;;;;;;4.22;2.78;;;18.60;99.90;;;-144.05;64.08;125687.94;6105212;23;20010;-89
2022/07/13 22:30:29;;;;;;;6.43;2.85;;;18.50;99.90;;;-144.05;65.36;125687.94;6114233;23;20049;-86
2022/07/13 22:34:17;;;;;;;5.50;3.05;;;18.40;99.90;;;-144.05;66.03;125687.94;6117414;23;20038;-87
2022/07/13 22:37:58;;;;;;;5.90;3.20;;;18.30;99.90;;;-144.05;65.95;125687.94;6115050;23;20022;-87
2022/07/13 22:41:40;;;;;;;4.32;2.72;;;18.30;99.90;;;-144.05;66.10;125687.94;6116537;23;20018;-85
2022/07/13 22:45:21;;;;;;;3.15;2.80;;;18.30;99.90;;;-144.05;66.14;125687.94;6113919;23;20078;-90
2022/07/13 22:54:13;;;;;;;4.32;2.65;;;18.10;99.90;;;-144.05;67.00;125687.94;6106967;23;20392;-87
2022/07/13 22:57:55;;;;;;;5.43;3.17;;;18.00;99.90;;;-144.05;67.61;125687.94;6076537;23;20010;-87
2022/07/13 23:01:37;;;;;;;5.00;3.70;;;18.00;99.90;;;-144.05;68.34;125687.94;6076294;23;20069;-87
2022/07/13 23:05:18;;;;;;;4.82;3.08;;;17.90;99.90;;;-144.05;68.75;125687.94;6076459;23;20404;-88
2022/07/13 23:08:59;;;;;;;6.57;3.30;;;17.80;99.90;;;-144.05;68.86;125687.94;6087259;23;20033;-87
2022/07/13 23:12:41;;;;;;;7.38;3.25;;;17.80;99.90;;;-144.05;68.99;125687.94;6081191;23;20006;-87
2022/07/13 23:16:22;;;;;;;6.43;3.05;;;17.90;99.90;;;-144.05;68.72;125687.94;6081000;23;20018;-89
2022/07/13 23:20:03;;;;;;;6.65;3.05;;;18.00;99.90;;;-144.05;68.35;125687.94;6080219;23;20018;-89
2022/07/13 23:23:45;;;;;;;10.50;3.60;;;18.00;99.90;;;-144.05;67.83;125687.94;6080454;23;20010;-88
2022/07/13 23:27:27;;;;;;;10.20;3.60;;;18.10;99.90;;;-144.05;67.83;125687.94;6082774;23;20022;-88
2022/07/13 23:29:52;;;;;;;10.23;3.45;;;18.00;99.90;;;-144.05;68.07;125687.94;6108372;23;20010;-86
2022/07/13 23:32:32;;;;;;;10.43;2.90;;;18.00;99.90;;;-144.05;68.08;125687.94;6082041;23;20021;-88
2022/07/13 23:34:59;;;;;;;10.15;3.03;;;18.00;99.90;;;-144.05;68.45;125687.94;6079320;23;20014;-87
2022/07/13 23:37:26;;;;;;;10.60;3.30;;;17.90;99.90;;;-144.05;68.50;125687.94;6078443;23;20065;-87
2022/07/13 23:39:53;;;;;;;7.63;3.35;;;17.90;99.90;;;-144.05;68.81;125687.94;6080128;23;20007;-88
2022/07/13 23:42:20;;;;;;;12.80;3.38;;;17.80;99.90;;;-144.05;69.04;125687.94;6080176;23;20010;-88
2022/07/13 23:44:47;;;;;;;14.20;3.60;;;17.80;99.90;;;-144.05;69.27;125687.94;6081832;23;20013;-87
2022/07/13 23:47:14;;;;;;;9.60;3.42;;;17.70;99.90;;;-144.05;69.53;125687.94;6084821;23;20015;-86
2022/07/13 23:49:40;;;;;;;18.88;3.78;;;17.70;99.90;;;-144.05;69.60;125687.94;6104127;23;20014;-87
2022/07/13 23:52:06;;;;;;;12.80;3.75;;;17.60;99.90;;;-144.05;69.45;125687.94;6080202;23;20010;-85
2022/07/13 23:54:32;;;;;;;12.70;3.50;;;17.60;99.90;;;-144.05;69.84;125687.94;6104091;23;20009;-87
2022/07/13 23:56:58;;;;;;;13.25;3.42;;;17.50;99.90;;;-144.05;69.94;125687.94;6080668;23;20014;-87
2022/07/13 23:59:23;;;;;;;8.75;3.10;;;17.50;99.90;;;-144.05;70.13;125687.94;6079933;23;20021;-87
